createdAt,value
2019-04-29T00:00:59.851Z,97.90
2019-04-29T00:01:59.822Z,97.96
2019-04-29T00:02:59.815Z,97.96
2019-04-29T00:03:59.798Z,97.86
2019-04-29T00:04:59.790Z,98.27
2019-04-29T00:05:59.824Z,97.44
2019-04-29T00:06:59.767Z,97.49
2019-04-29T00:07:59.752Z,96.97
2019-04-29T00:08:59.746Z,97.38
2019-04-29T00:09:59.730Z,97.38
2019-04-29T00:10:59.718Z,97.17
2019-04-29T00:11:59.751Z,97.17
2019-04-29T00:12:59.702Z,97.38
2019-04-29T00:13:59.683Z,97.49
2019-04-29T00:14:59.685Z,97.53
2019-04-29T00:15:59.662Z,97.90
2019-04-29T00:16:59.697Z,97.80
2019-04-29T00:17:59.679Z,98.21
2019-04-29T00:18:59.704Z,98.21
2019-04-29T00:19:59.622Z,98.48
2019-04-29T00:20:59.605Z,98.32
2019-04-29T00:21:59.605Z,98.52
2019-04-29T00:22:59.608Z,98.63
2019-04-29T00:24:03.891Z,98.63
2019-04-29T00:24:59.554Z,98.52
2019-04-29T00:25:59.546Z,98.63
2019-04-29T00:26:59.586Z,98.47
2019-04-29T00:27:59.525Z,98.26
2019-04-29T00:28:59.509Z,98.36
2019-04-29T00:29:59.521Z,98.05
2019-04-29T00:30:59.534Z,98.47
2019-04-29T00:31:59.525Z,98.36
2019-04-29T00:32:59.462Z,98.99
2019-04-29T00:33:59.459Z,98.20
2019-04-29T00:34:59.439Z,98.82
2019-04-29T00:35:59.435Z,98.68
2019-04-29T00:36:59.415Z,98.68
2019-04-29T00:37:59.447Z,98.99
2019-04-29T00:38:59.394Z,99.71
2019-04-29T00:39:59.426Z,98.88
2019-04-29T00:40:59.372Z,98.68
2019-04-29T00:41:59.379Z,99.03
2019-04-29T00:42:59.346Z,98.82
2019-04-29T00:43:59.378Z,98.72
2019-04-29T00:44:59.330Z,99.86
2019-04-29T00:45:59.315Z,99.76
2019-04-29T00:46:59.299Z,99.96
2019-04-29T00:47:59.288Z,99.99
2019-04-29T00:48:59.489Z,99.99
2019-04-29T00:49:59.267Z,99.99
2019-04-29T00:50:59.255Z,99.99
2019-04-29T00:51:59.246Z,99.99
2019-04-29T00:52:59.237Z,99.92
2019-04-29T00:53:59.231Z,99.40
2019-04-29T00:54:59.311Z,99.76
2019-04-29T00:55:59.196Z,99.96
2019-04-29T00:56:59.185Z,99.65
2019-04-29T00:57:59.175Z,99.99
2019-04-29T00:58:59.162Z,99.65
2019-04-29T00:59:59.164Z,99.96
2019-04-29T01:00:59.352Z,99.96
2019-04-29T01:01:59.131Z,99.99
2019-04-29T01:02:59.119Z,99.99
2019-04-29T01:03:59.104Z,99.99
2019-04-29T01:04:59.095Z,99.99
2019-04-29T01:05:59.082Z,99.99
2019-04-29T01:06:59.141Z,99.99
2019-04-29T01:07:59.064Z,99.99
2019-04-29T01:08:59.047Z,99.99
2019-04-29T01:09:59.039Z,99.99
2019-04-29T01:10:59.023Z,99.99
2019-04-29T01:11:59.012Z,99.99
2019-04-29T01:12:59.088Z,99.99
2019-04-29T01:13:58.988Z,99.99
2019-04-29T01:14:58.977Z,99.99
2019-04-29T01:15:58.969Z,99.99
2019-04-29T01:16:58.954Z,99.55
2019-04-29T01:17:58.960Z,99.99
2019-04-29T01:18:59.003Z,99.99
2019-04-29T01:19:58.921Z,99.99
2019-04-29T01:20:58.925Z,99.99
2019-04-29T01:21:58.911Z,99.99
2019-04-29T01:22:58.893Z,99.99
2019-04-29T01:23:58.876Z,99.99
2019-04-29T01:24:58.941Z,99.99
2019-04-29T01:25:58.854Z,99.99
2019-04-29T01:26:58.862Z,99.99
2019-04-29T01:27:58.850Z,99.99
2019-04-29T01:28:58.833Z,99.99
2019-04-29T01:29:58.806Z,99.99
2019-04-29T01:30:59.007Z,99.99
2019-04-29T01:31:58.782Z,99.99
2019-04-29T01:32:58.773Z,99.98
2019-04-29T01:33:58.764Z,99.99
2019-04-29T01:34:58.750Z,99.99
2019-04-29T01:35:58.738Z,99.87
2019-04-29T01:36:58.937Z,99.66
2019-04-29T01:37:58.715Z,99.82
2019-04-29T01:38:58.707Z,99.15
2019-04-29T01:39:58.722Z,98.94
2019-04-29T01:40:58.694Z,98.83
2019-04-29T01:41:58.671Z,98.83
2019-04-29T01:42:58.727Z,98.52
2019-04-29T01:43:58.649Z,98.63
2019-04-29T01:44:58.637Z,98.63
2019-04-29T01:45:58.633Z,98.69
2019-04-29T01:46:58.628Z,98.79
2019-04-29T01:47:58.605Z,98.07
2019-04-29T01:48:58.671Z,97.44
2019-04-29T01:49:58.581Z,97.17
2019-04-29T01:50:58.582Z,97.69
2019-04-29T01:51:58.559Z,96.86
2019-04-29T01:52:58.549Z,96.86
2019-04-29T01:53:58.557Z,97.69
2019-04-29T01:54:58.604Z,96.97
2019-04-29T01:55:58.522Z,96.55
2019-04-29T01:56:58.504Z,96.86
2019-04-29T01:57:58.507Z,96.34
2019-04-29T01:58:58.478Z,96.55
2019-04-29T01:59:58.467Z,96.50
2019-04-29T02:00:58.521Z,96.70
2019-04-29T02:01:58.444Z,96.91
2019-04-29T02:02:58.434Z,96.86
2019-04-29T02:03:58.425Z,96.60
2019-04-29T02:04:58.408Z,96.50
2019-04-29T02:05:58.397Z,97.17
2019-04-29T02:06:58.464Z,97.28
2019-04-29T02:07:58.380Z,97.17
2019-04-29T02:08:58.383Z,97.28
2019-04-29T02:09:58.374Z,97.03
2019-04-29T02:10:58.377Z,97.44
2019-04-29T02:11:58.343Z,96.78
2019-04-29T02:12:58.388Z,96.72
2019-04-29T02:13:58.318Z,96.36
2019-04-29T02:15:01.022Z,95.95
2019-04-29T02:15:58.952Z,96.26
2019-04-29T02:16:58.279Z,96.05
2019-04-29T02:17:58.281Z,96.15
2019-04-29T02:18:58.320Z,95.32
2019-04-29T02:19:58.260Z,95.12
2019-04-29T02:20:58.225Z,95.12
2019-04-29T02:21:58.215Z,95.12
2019-04-29T02:22:58.212Z,95.12
2019-04-29T02:23:58.209Z,95.01
2019-04-29T02:24:58.262Z,95.01
2019-04-29T02:25:58.171Z,95.43
2019-04-29T02:26:58.158Z,95.12
2019-04-29T02:27:58.157Z,95.22
2019-04-29T02:28:58.134Z,95.68
2019-04-29T02:29:58.134Z,96.09
2019-04-29T02:30:58.184Z,95.89
2019-04-29T02:31:58.100Z,95.89
2019-04-29T02:32:58.088Z,95.89
2019-04-29T02:33:58.076Z,96.09
2019-04-29T02:34:58.073Z,96.20
2019-04-29T02:35:58.051Z,95.68
2019-04-29T02:36:58.115Z,95.37
2019-04-29T02:37:58.096Z,95.32
2019-04-29T02:38:58.019Z,94.81
2019-04-29T02:39:58.007Z,95.12
2019-04-29T02:40:57.997Z,95.43
2019-04-29T02:41:57.983Z,95.32
2019-04-29T02:42:58.049Z,95.53
2019-04-29T02:43:57.966Z,95.32
2019-04-29T02:44:57.952Z,95.32
2019-04-29T02:45:57.938Z,95.22
2019-04-29T02:46:57.932Z,95.32
2019-04-29T02:47:57.915Z,95.43
2019-04-29T02:48:57.993Z,95.01
2019-04-29T02:49:57.902Z,95.01
2019-04-29T02:50:57.881Z,95.43
2019-04-29T02:51:57.873Z,95.32
2019-04-29T02:52:57.865Z,95.47
2019-04-29T02:53:57.845Z,95.47
2019-04-29T02:54:58.046Z,95.26
2019-04-29T02:55:57.827Z,95.57
2019-04-29T02:56:57.817Z,95.16
2019-04-29T02:57:57.816Z,95.16
2019-04-29T02:58:57.785Z,95.20
2019-04-29T02:59:57.774Z,95.72
2019-04-29T03:00:57.977Z,96.24
2019-04-29T03:01:57.750Z,96.24
2019-04-29T03:02:57.740Z,96.24
2019-04-29T03:03:57.729Z,95.93
2019-04-29T03:04:57.742Z,96.29
2019-04-29T03:05:57.706Z,96.29
2019-04-29T03:06:57.916Z,96.50
2019-04-29T03:07:57.704Z,96.64
2019-04-29T03:08:57.680Z,96.64
2019-04-29T03:09:57.664Z,96.64
2019-04-29T03:10:57.648Z,96.54
2019-04-29T03:12:01.632Z,96.64
2019-04-29T03:12:57.706Z,97.58
2019-04-29T03:13:57.611Z,97.78
2019-04-29T03:14:57.601Z,97.47
2019-04-29T03:15:57.590Z,97.78
2019-04-29T03:16:57.577Z,97.16
2019-04-29T03:17:57.566Z,96.95
2019-04-29T03:18:57.644Z,97.58
2019-04-29T03:19:57.546Z,97.72
2019-04-29T03:20:57.537Z,97.20
2019-04-29T03:21:57.549Z,97.31
2019-04-29T03:22:57.510Z,97.37
2019-04-29T03:23:57.498Z,97.00
2019-04-29T03:24:57.547Z,97.83
2019-04-29T03:25:57.474Z,98.14
2019-04-29T03:26:57.598Z,98.03
2019-04-29T03:27:57.497Z,97.93
2019-04-29T03:28:57.457Z,98.03
2019-04-29T03:29:57.430Z,98.14
2019-04-29T03:30:57.628Z,98.97
2019-04-29T03:31:57.445Z,98.35
2019-04-29T03:32:57.424Z,98.97
2019-04-29T03:33:57.389Z,98.08
2019-04-29T03:34:57.383Z,98.29
2019-04-29T03:35:57.367Z,98.81
2019-04-29T03:36:57.566Z,98.91
2019-04-29T03:37:57.350Z,99.22
2019-04-29T03:38:57.416Z,99.22
2019-04-29T03:39:57.319Z,99.22
2019-04-29T03:40:57.316Z,99.43
2019-04-29T03:41:57.302Z,99.43
2019-04-29T03:42:57.393Z,99.80
2019-04-29T03:43:57.278Z,99.99
2019-04-29T03:44:57.262Z,99.99
2019-04-29T03:45:57.261Z,99.91
2019-04-29T03:46:57.241Z,99.28
2019-04-29T03:47:57.238Z,99.59
2019-04-29T03:48:57.281Z,99.59
2019-04-29T03:49:57.209Z,99.80
2019-04-29T03:50:57.328Z,99.70
2019-04-29T03:51:57.188Z,99.74
2019-04-29T03:52:57.176Z,99.74
2019-04-29T03:53:57.162Z,99.99
2019-04-29T03:54:57.222Z,99.99
2019-04-29T03:55:57.143Z,99.74
2019-04-29T03:56:57.132Z,99.80
2019-04-29T03:57:57.123Z,99.33
2019-04-29T03:58:57.139Z,99.99
2019-04-29T03:59:57.292Z,99.99
2019-04-29T04:00:57.168Z,99.99
2019-04-29T04:01:57.072Z,99.99
2019-04-29T04:02:57.064Z,99.99
2019-04-29T04:03:57.054Z,99.99
2019-04-29T04:04:57.044Z,99.65
2019-04-29T04:05:57.037Z,99.96
2019-04-29T04:06:57.221Z,99.44
2019-04-29T04:07:57.006Z,99.99
2019-04-29T04:09:06.349Z,99.99
2019-04-29T04:09:57.985Z,99.80
2019-04-29T04:10:56.974Z,99.02
2019-04-29T04:11:56.981Z,99.59
2019-04-29T04:12:57.036Z,99.07
2019-04-29T04:13:56.966Z,99.02
2019-04-29T04:14:56.943Z,98.91
2019-04-29T04:15:56.920Z,98.39
2019-04-29T04:16:56.936Z,98.96
2019-04-29T04:17:56.895Z,99.22
2019-04-29T04:18:57.088Z,99.43
2019-04-29T04:19:56.870Z,99.74
2019-04-29T04:20:56.860Z,99.99
2019-04-29T04:21:56.848Z,99.38
2019-04-29T04:22:56.842Z,99.95
2019-04-29T04:23:58.283Z,99.91
2019-04-29T04:24:56.901Z,99.18
2019-04-29T04:25:56.809Z,99.43
2019-04-29T04:26:56.800Z,99.99
2019-04-29T04:27:56.803Z,99.28
2019-04-29T04:28:56.770Z,98.76
2019-04-29T04:29:56.761Z,98.97
2019-04-29T04:30:56.956Z,99.49
2019-04-29T04:31:56.743Z,98.93
2019-04-29T04:32:56.725Z,99.13
2019-04-29T04:33:56.727Z,98.93
2019-04-29T04:34:56.710Z,99.09
2019-04-29T04:35:56.703Z,98.99
2019-04-29T04:37:00.170Z,98.68
2019-04-29T04:37:56.668Z,98.88
2019-04-29T04:38:56.677Z,98.11
2019-04-29T04:39:56.682Z,98.83
2019-04-29T04:40:56.662Z,98.21
2019-04-29T04:41:56.629Z,98.32
2019-04-29T04:42:56.704Z,97.44
2019-04-29T04:43:56.601Z,97.24
2019-04-29T04:44:56.586Z,97.44
2019-04-29T04:45:56.579Z,97.03
2019-04-29T04:46:56.563Z,96.92
2019-04-29T04:47:56.554Z,97.39
2019-04-29T04:48:56.607Z,97.09
2019-04-29T04:49:56.528Z,96.78
2019-04-29T04:50:56.536Z,96.72
2019-04-29T04:51:56.511Z,96.67
2019-04-29T04:52:56.493Z,96.26
2019-04-29T04:53:56.502Z,96.26
2019-04-29T04:54:56.679Z,96.15
2019-04-29T04:55:56.459Z,96.21
2019-04-29T04:56:56.447Z,96.11
2019-04-29T04:57:56.435Z,95.70
2019-04-29T04:58:56.425Z,95.39
2019-04-29T04:59:56.417Z,95.07
2019-04-29T05:00:56.470Z,95.18
2019-04-29T05:01:56.395Z,94.72
2019-04-29T05:02:56.410Z,95.03
2019-04-29T05:03:56.370Z,95.03
2019-04-29T05:04:56.355Z,94.37
2019-04-29T05:05:56.344Z,93.95
2019-04-29T05:06:56.400Z,93.85
2019-04-29T05:07:56.351Z,94.06
2019-04-29T05:08:56.308Z,94.06
2019-04-29T05:09:56.305Z,93.60
2019-04-29T05:10:56.305Z,93.08
2019-04-29T05:11:56.276Z,92.67
2019-04-29T05:12:56.478Z,92.83
2019-04-29T05:13:56.256Z,92.46
2019-04-29T05:14:56.259Z,91.49
2019-04-29T05:15:56.229Z,91.84
2019-04-29T05:16:56.219Z,92.00
2019-04-29T05:17:56.208Z,91.90
2019-04-29T05:18:56.258Z,92.21
2019-04-29T05:19:56.190Z,92.63
2019-04-29T05:20:56.178Z,92.42
2019-04-29T05:21:56.162Z,92.63
2019-04-29T05:22:56.154Z,92.17
2019-04-29T05:23:56.150Z,92.38
2019-04-29T05:24:56.353Z,91.71
2019-04-29T05:25:56.128Z,91.61
2019-04-29T05:26:56.112Z,91.46
2019-04-29T05:27:56.094Z,91.98
2019-04-29T05:28:56.081Z,91.98
2019-04-29T05:29:56.070Z,91.56
2019-04-29T05:30:56.127Z,91.26
2019-04-29T05:31:56.053Z,91.56
2019-04-29T05:32:56.042Z,90.84
2019-04-29T05:33:56.043Z,90.70
2019-04-29T05:34:56.018Z,90.49
2019-04-29T05:35:56.592Z,90.59
2019-04-29T05:36:57.052Z,90.19
2019-04-29T05:37:56.892Z,90.59
2019-04-29T05:38:55.967Z,89.67
2019-04-29T05:39:55.955Z,90.28
2019-04-29T05:40:57.059Z,90.25
2019-04-29T05:41:55.932Z,90.45
2019-04-29T05:42:56.009Z,90.66
2019-04-29T05:43:55.915Z,90.14
2019-04-29T05:44:55.900Z,90.25
2019-04-29T05:45:55.906Z,90.25
2019-04-29T05:46:55.880Z,90.45
2019-04-29T05:47:56.973Z,90.35
2019-04-29T05:48:55.918Z,89.62
2019-04-29T05:49:55.844Z,90.35
2019-04-29T05:50:55.834Z,90.14
2019-04-29T05:51:57.516Z,90.72
2019-04-29T05:52:56.812Z,90.10
2019-04-29T05:53:56.011Z,90.20
2019-04-29T05:54:55.882Z,89.17
2019-04-29T05:55:55.776Z,89.69
2019-04-29T05:56:55.809Z,89.65
2019-04-29T05:58:02.887Z,89.54
2019-04-29T05:58:56.747Z,89.13
2019-04-29T05:59:55.738Z,89.34
2019-04-29T06:00:55.791Z,89.09
2019-04-29T06:01:55.711Z,89.03
2019-04-29T06:02:55.716Z,88.89
2019-04-29T06:03:55.685Z,89.09
2019-04-29T06:04:55.674Z,89.19
2019-04-29T06:05:55.677Z,89.09
2019-04-29T06:06:55.724Z,89.09
2019-04-29T06:07:56.101Z,89.50
2019-04-29T06:08:55.657Z,88.84
2019-04-29T06:09:55.617Z,88.64
2019-04-29T06:10:55.613Z,88.95
2019-04-29T06:11:55.597Z,89.25
2019-04-29T06:12:55.648Z,89.36
2019-04-29T06:13:55.582Z,89.31
2019-04-29T06:14:55.595Z,89.36
2019-04-29T06:15:55.552Z,89.22
2019-04-29T06:16:57.724Z,89.01
2019-04-29T06:17:56.586Z,89.31
2019-04-29T06:19:00.380Z,89.07
2019-04-29T06:19:56.517Z,88.96
2019-04-29T06:21:08.326Z,88.92
2019-04-29T06:21:56.481Z,89.03
2019-04-29T06:22:55.469Z,87.69
2019-04-29T06:23:59.477Z,87.59
2019-04-29T06:24:56.443Z,87.49
2019-04-29T06:25:55.467Z,87.18
2019-04-29T06:26:55.420Z,87.34
2019-04-29T06:27:55.408Z,87.13
2019-04-29T06:28:55.421Z,86.72
2019-04-29T06:29:58.519Z,86.93
2019-04-29T06:30:56.373Z,86.32
2019-04-29T06:31:55.376Z,86.62
2019-04-29T06:32:55.350Z,86.89
2019-04-29T06:33:55.345Z,85.97
2019-04-29T06:34:55.328Z,86.27
2019-04-29T06:35:57.024Z,85.86
2019-04-29T06:36:55.315Z,85.66
2019-04-29T06:37:55.304Z,85.93
2019-04-29T06:38:55.285Z,85.72
2019-04-29T06:39:55.272Z,85.06
2019-04-29T06:40:55.261Z,85.31
2019-04-29T06:41:55.316Z,84.66
2019-04-29T06:42:55.292Z,83.42
2019-04-29T06:43:56.137Z,83.12
2019-04-29T06:44:55.218Z,83.18
2019-04-29T06:45:55.220Z,83.34
2019-04-29T06:46:56.308Z,82.32
2019-04-29T06:47:55.249Z,83.34
2019-04-29T06:49:09.062Z,82.79
2019-04-29T06:49:56.161Z,82.39
2019-04-29T06:50:55.145Z,82.12
2019-04-29T06:51:55.134Z,82.39
2019-04-29T06:52:55.122Z,82.53
2019-04-29T06:53:55.175Z,82.18
2019-04-29T06:54:55.101Z,82.24
2019-04-29T06:55:55.098Z,81.87
2019-04-29T06:56:55.076Z,81.36
2019-04-29T06:57:55.066Z,82.08
2019-04-29T06:58:55.055Z,82.18
2019-04-29T06:59:55.107Z,81.36
2019-04-29T07:00:55.946Z,81.87
2019-04-29T07:01:56.021Z,81.09
2019-04-29T07:02:55.009Z,81.26
2019-04-29T07:03:55.728Z,81.67
2019-04-29T07:04:54.985Z,81.05
2019-04-29T07:05:55.036Z,81.05
2019-04-29T07:06:57.743Z,80.54
2019-04-29T07:07:54.960Z,80.13
2019-04-29T07:08:54.942Z,81.67
2019-04-29T07:09:56.866Z,80.33
2019-04-29T07:10:56.026Z,81.15
2019-04-29T07:12:01.432Z,80.64
2019-04-29T07:12:55.893Z,81.15
2019-04-29T07:13:57.602Z,80.33
2019-04-29T07:14:54.873Z,80.51
2019-04-29T07:15:54.865Z,79.17
2019-04-29T07:16:54.851Z,79.64
2019-04-29T07:17:54.899Z,78.72
2019-04-29T07:18:54.828Z,78.83
2019-04-29T07:19:57.620Z,79.00
2019-04-29T07:20:55.804Z,78.17
2019-04-29T07:21:56.555Z,77.73
2019-04-29T07:22:56.528Z,78.45
2019-04-29T07:23:55.833Z,77.53
2019-04-29T07:24:54.759Z,76.40
2019-04-29T07:25:54.746Z,77.19
2019-04-29T07:26:57.922Z,75.21
2019-04-29T07:27:55.722Z,74.84
2019-04-29T07:28:55.713Z,75.14
2019-04-29T07:29:54.762Z,74.93
2019-04-29T07:31:03.074Z,75.96
2019-04-29T07:31:55.684Z,74.84
2019-04-29T07:32:54.667Z,75.45
2019-04-29T07:33:57.900Z,76.30
2019-04-29T07:34:54.642Z,76.47
2019-04-29T07:35:54.710Z,76.37
2019-04-29T07:36:57.719Z,76.57
2019-04-29T07:37:54.607Z,76.30
2019-04-29T07:38:56.629Z,75.79
2019-04-29T07:39:54.585Z,75.96
2019-04-29T07:40:54.574Z,75.62
2019-04-29T07:41:54.752Z,76.53
2019-04-29T07:42:54.562Z,76.19
2019-04-29T07:43:54.540Z,74.56
2019-04-29T07:44:54.529Z,74.93
2019-04-29T07:45:54.517Z,72.38
2019-04-29T07:46:58.276Z,71.02
2019-04-29T07:47:56.824Z,70.75
2019-04-29T07:49:01.199Z,71.50
2019-04-29T07:49:55.754Z,73.43
2019-04-29T07:50:54.461Z,72.99
2019-04-29T07:51:54.449Z,70.38
2019-04-29T07:52:54.436Z,69.60
2019-04-29T07:53:54.491Z,70.24
2019-04-29T07:54:56.131Z,69.67
2019-04-29T07:55:54.405Z,70.72
2019-04-29T07:56:54.392Z,71.23
2019-04-29T07:57:54.384Z,70.31
2019-04-29T07:58:54.367Z,70.82
2019-04-29T07:59:54.562Z,70.44
2019-04-29T08:00:56.275Z,70.85
2019-04-29T08:01:55.699Z,70.98
2019-04-29T08:02:55.323Z,71.67
2019-04-29T08:03:54.313Z,71.84
2019-04-29T08:04:54.298Z,71.80
2019-04-29T08:05:54.357Z,70.92
2019-04-29T08:06:54.275Z,71.73
2019-04-29T08:07:54.265Z,73.16
2019-04-29T08:08:57.360Z,71.60
2019-04-29T08:09:55.240Z,71.47
2019-04-29T08:10:56.661Z,68.68
2019-04-29T08:11:54.278Z,66.44
2019-04-29T08:12:54.205Z,66.96
2019-04-29T08:13:54.196Z,67.36
2019-04-29T08:14:58.632Z,67.46
2019-04-29T08:15:55.197Z,65.02
2019-04-29T08:16:54.177Z,64.92
2019-04-29T08:18:05.957Z,65.43
2019-04-29T08:18:55.140Z,65.53
2019-04-29T08:19:54.128Z,66.07
2019-04-29T08:20:54.116Z,67.32
2019-04-29T08:21:54.102Z,67.46
2019-04-29T08:22:54.094Z,67.46
2019-04-29T08:23:54.141Z,69.02
2019-04-29T08:24:54.067Z,68.71
2019-04-29T08:25:57.489Z,69.25
2019-04-29T08:26:55.053Z,69.15
2019-04-29T08:27:54.033Z,69.25
2019-04-29T08:29:00.291Z,69.25
2019-04-29T08:29:55.076Z,69.56
2019-04-29T08:30:54.008Z,69.22
2019-04-29T08:31:57.349Z,68.81
2019-04-29T08:32:54.977Z,68.07
2019-04-29T08:33:53.965Z,68.13
2019-04-29T08:34:58.296Z,68.13
2019-04-29T08:35:55.156Z,67.39
2019-04-29T08:36:53.931Z,67.29
2019-04-29T08:37:53.920Z,67.39
2019-04-29T08:38:53.908Z,66.88
2019-04-29T08:40:14.707Z,66.35
2019-04-29T08:40:54.883Z,65.91
2019-04-29T08:41:53.935Z,64.65
2019-04-29T08:42:53.862Z,64.25
2019-04-29T08:43:57.820Z,63.54
2019-04-29T08:44:59.551Z,62.29
2019-04-29T08:45:54.825Z,62.90
2019-04-29T08:46:53.823Z,62.82
2019-04-29T08:47:53.867Z,63.64
2019-04-29T08:48:53.801Z,63.97
2019-04-29T08:49:53.782Z,63.57
2019-04-29T08:50:53.772Z,64.20
2019-04-29T08:51:53.757Z,65.22
2019-04-29T08:52:53.748Z,64.84
2019-04-29T08:53:53.807Z,65.08
2019-04-29T08:54:55.495Z,65.19
2019-04-29T08:55:53.717Z,65.62
2019-04-29T08:57:03.156Z,66.03
2019-04-29T08:57:54.689Z,64.87
2019-04-29T08:58:53.679Z,64.81
2019-04-29T08:59:53.878Z,65.52
2019-04-29T09:00:55.686Z,65.83
2019-04-29T09:01:53.648Z,66.74
2019-04-29T09:02:53.632Z,67.29
2019-04-29T09:03:57.635Z,69.12
2019-04-29T09:04:54.089Z,70.34
2019-04-29T09:06:05.011Z,68.33
2019-04-29T09:06:54.588Z,68.13
2019-04-29T09:07:57.311Z,70.61
2019-04-29T09:08:59.237Z,70.89
2019-04-29T09:09:56.133Z,70.92
2019-04-29T09:10:54.599Z,71.67
2019-04-29T09:11:53.528Z,71.80
2019-04-29T09:12:53.519Z,74.76
2019-04-29T09:13:53.505Z,76.60
2019-04-29T09:14:53.497Z,78.64
2019-04-29T09:15:53.485Z,78.95
2019-04-29T09:16:53.535Z,77.83
2019-04-29T09:17:53.546Z,77.93
2019-04-29T09:18:53.463Z,79.36
2019-04-29T09:19:53.438Z,78.07
2019-04-29T09:20:53.429Z,77.66
2019-04-29T09:21:53.415Z,77.76
2019-04-29T09:22:53.473Z,76.33
2019-04-29T09:23:53.395Z,75.51
2019-04-29T09:24:53.380Z,76.43
2019-04-29T09:26:02.472Z,77.04
2019-04-29T09:26:54.359Z,76.53
2019-04-29T09:27:56.248Z,78.41
2019-04-29T09:28:53.541Z,78.78
2019-04-29T09:29:54.193Z,78.07
2019-04-29T09:30:54.314Z,80.21
2019-04-29T09:31:53.300Z,78.99
2019-04-29T09:32:53.288Z,79.09
2019-04-29T09:34:06.023Z,78.78
2019-04-29T09:34:55.551Z,79.84
2019-04-29T09:35:53.252Z,80.87
2019-04-29T09:36:53.240Z,80.97
2019-04-29T09:37:53.894Z,81.41
2019-04-29T09:38:53.217Z,81.17
2019-04-29T09:39:53.239Z,81.88
2019-04-29T09:40:54.624Z,80.39
2019-04-29T09:41:54.183Z,81.62
2019-04-29T09:42:53.171Z,80.29
2019-04-29T09:43:53.160Z,80.29
2019-04-29T09:44:53.147Z,80.90
2019-04-29T09:45:53.842Z,80.19
2019-04-29T09:46:54.195Z,81.01
2019-04-29T09:47:53.118Z,79.47
2019-04-29T09:48:53.103Z,81.48
2019-04-29T09:49:53.092Z,80.19
2019-04-29T09:50:53.085Z,80.29
2019-04-29T09:51:53.080Z,79.37
2019-04-29T09:52:53.123Z,80.29
2019-04-29T09:53:53.048Z,81.48
2019-04-29T09:54:53.034Z,79.84
2019-04-29T09:55:53.024Z,80.25
2019-04-29T09:56:53.015Z,80.56
2019-04-29T09:57:53.006Z,79.94
2019-04-29T09:58:53.054Z,79.60
2019-04-29T09:59:52.979Z,81.54
2019-04-29T10:00:52.991Z,79.64
2019-04-29T10:01:55.098Z,80.15
2019-04-29T10:02:52.943Z,79.91
2019-04-29T10:03:52.944Z,79.84
2019-04-29T10:04:56.666Z,80.46
2019-04-29T10:05:52.909Z,80.46
2019-04-29T10:06:52.896Z,81.68
2019-04-29T10:07:52.887Z,81.62
2019-04-29T10:08:52.883Z,81.07
2019-04-29T10:09:57.405Z,81.93
2019-04-29T10:10:52.913Z,82.03
2019-04-29T10:11:52.840Z,82.13
2019-04-29T10:12:54.128Z,82.75
2019-04-29T10:13:52.822Z,82.17
2019-04-29T10:14:52.814Z,82.78
2019-04-29T10:15:55.944Z,82.98
2019-04-29T10:16:53.845Z,82.57
2019-04-29T10:17:55.693Z,83.19
2019-04-29T10:18:52.758Z,83.91
2019-04-29T10:19:52.760Z,82.98
2019-04-29T10:20:52.759Z,83.13
2019-04-29T10:21:52.744Z,84.97
2019-04-29T10:22:53.869Z,84.46
2019-04-29T10:23:52.702Z,84.29
2019-04-29T10:24:52.691Z,84.29
2019-04-29T10:25:52.680Z,84.50
2019-04-29T10:26:52.686Z,84.70
2019-04-29T10:27:52.658Z,85.77
2019-04-29T10:28:52.859Z,86.58
2019-04-29T10:29:55.272Z,87.71
2019-04-29T10:30:52.634Z,86.28
2019-04-29T10:31:52.614Z,86.79
2019-04-29T10:32:52.614Z,86.63
2019-04-29T10:33:54.824Z,87.24
2019-04-29T10:34:52.664Z,88.06
2019-04-29T10:35:52.566Z,88.17
2019-04-29T10:36:53.693Z,88.88
2019-04-29T10:37:52.544Z,88.68
2019-04-29T10:38:52.537Z,88.82
2019-04-29T10:39:52.520Z,88.82
2019-04-29T10:40:52.634Z,89.43
2019-04-29T10:41:52.560Z,89.75
2019-04-29T10:42:52.508Z,89.54
2019-04-29T10:43:53.772Z,90.16
2019-04-29T10:44:52.465Z,89.54
2019-04-29T10:45:52.451Z,89.90
2019-04-29T10:46:52.659Z,91.14
2019-04-29T10:47:52.438Z,89.60
2019-04-29T10:48:52.420Z,90.32
2019-04-29T10:49:52.418Z,89.90
2019-04-29T10:50:53.909Z,90.83
2019-04-29T10:51:52.407Z,90.22
2019-04-29T10:52:52.433Z,90.11
2019-04-29T10:53:52.711Z,91.03
2019-04-29T10:54:55.332Z,91.03
2019-04-29T10:55:52.341Z,89.50
2019-04-29T10:56:52.342Z,89.09
2019-04-29T10:57:52.325Z,89.54
2019-04-29T10:58:52.368Z,90.36
2019-04-29T10:59:52.301Z,90.97
2019-04-29T11:00:52.798Z,91.28
2019-04-29T11:02:01.026Z,90.87
2019-04-29T11:02:53.266Z,90.97
2019-04-29T11:03:55.825Z,90.67
2019-04-29T11:04:53.295Z,90.97
2019-04-29T11:06:00.288Z,90.67
2019-04-29T11:06:53.207Z,90.87
2019-04-29T11:07:52.224Z,90.97
2019-04-29T11:08:52.219Z,91.65
2019-04-29T11:09:52.629Z,91.80
2019-04-29T11:11:01.871Z,91.69
2019-04-29T11:11:53.159Z,92.00
2019-04-29T11:12:52.141Z,91.69
2019-04-29T11:13:52.139Z,92.82
2019-04-29T11:14:52.152Z,91.90
2019-04-29T11:15:52.147Z,93.13
2019-04-29T11:16:52.338Z,91.84
2019-04-29T11:17:58.788Z,92.51
2019-04-29T11:18:55.019Z,92.25
2019-04-29T11:19:53.061Z,91.53
2019-04-29T11:20:53.850Z,92.41
2019-04-29T11:21:52.044Z,92.51
2019-04-29T11:22:52.088Z,92.51
2019-04-29T11:23:54.773Z,92.51
2019-04-29T11:24:52.040Z,91.80
2019-04-29T11:25:52.036Z,93.13
2019-04-29T11:26:51.989Z,93.33
2019-04-29T11:27:52.006Z,92.61
2019-04-29T11:28:52.381Z,93.54
2019-04-29T11:29:51.952Z,92.72
2019-04-29T11:30:51.938Z,92.93
2019-04-29T11:31:54.034Z,92.93
2019-04-29T11:32:51.913Z,92.61
2019-04-29T11:33:51.946Z,93.02
2019-04-29T11:34:53.416Z,93.13
2019-04-29T11:35:51.897Z,94.46
2019-04-29T11:36:51.879Z,93.89
2019-04-29T11:37:54.939Z,94.20
2019-04-29T11:38:52.860Z,93.99
2019-04-29T11:39:51.858Z,93.59
2019-04-29T11:40:51.891Z,93.38
2019-04-29T11:41:54.638Z,92.55
2019-04-29T11:42:52.802Z,92.35
2019-04-29T11:43:52.821Z,94.24
2019-04-29T11:44:51.782Z,93.93
2019-04-29T11:45:51.767Z,94.24
2019-04-29T11:46:51.832Z,93.89
2019-04-29T11:47:51.745Z,94.55
2019-04-29T11:48:51.746Z,92.55
2019-04-29T11:49:51.724Z,93.48
2019-04-29T11:50:54.888Z,93.89
2019-04-29T11:52:08.518Z,94.40
2019-04-29T11:52:55.563Z,93.79
2019-04-29T11:53:51.681Z,93.27
2019-04-29T11:54:51.676Z,92.86
2019-04-29T11:55:52.406Z,93.38
2019-04-29T11:56:51.645Z,94.40
2019-04-29T11:57:51.637Z,93.48
2019-04-29T11:58:51.830Z,92.86
2019-04-29T11:59:51.612Z,93.27
2019-04-29T12:00:52.114Z,92.97
2019-04-29T12:01:53.364Z,94.61
2019-04-29T12:02:51.591Z,92.86
2019-04-29T12:03:56.353Z,93.38
2019-04-29T12:04:52.611Z,93.38
2019-04-29T12:05:51.546Z,93.38
2019-04-29T12:06:56.215Z,93.85
2019-04-29T12:07:52.519Z,92.55
2019-04-29T12:08:53.239Z,92.55
2019-04-29T12:09:51.490Z,92.35
2019-04-29T12:11:05.999Z,93.07
2019-04-29T12:11:52.473Z,92.76
2019-04-29T12:12:51.578Z,92.35
2019-04-29T12:13:51.543Z,93.38
2019-04-29T12:14:51.434Z,94.20
2019-04-29T12:15:51.424Z,94.20
2019-04-29T12:16:54.543Z,94.24
2019-04-29T12:17:51.403Z,94.30
2019-04-29T12:18:51.390Z,93.59
2019-04-29T12:19:51.392Z,93.52
2019-04-29T12:20:51.368Z,93.93
2019-04-29T12:21:51.358Z,93.73
2019-04-29T12:22:51.403Z,92.91
2019-04-29T12:23:52.131Z,91.57
2019-04-29T12:24:51.332Z,92.04
2019-04-29T12:25:51.307Z,92.55
2019-04-29T12:26:51.296Z,91.16
2019-04-29T12:28:01.240Z,91.67
2019-04-29T12:28:52.329Z,91.84
2019-04-29T12:29:54.410Z,91.47
2019-04-29T12:30:51.252Z,91.94
2019-04-29T12:31:51.315Z,92.25
2019-04-29T12:32:51.226Z,91.88
2019-04-29T12:33:51.217Z,91.99
2019-04-29T12:34:51.318Z,93.21
2019-04-29T12:35:52.332Z,92.70
2019-04-29T12:36:56.473Z,93.52
2019-04-29T12:37:52.180Z,93.73
2019-04-29T12:38:51.490Z,94.04
2019-04-29T12:39:51.150Z,93.77
2019-04-29T12:40:55.046Z,93.52
2019-04-29T12:41:51.126Z,94.49
2019-04-29T12:42:51.107Z,94.55
2019-04-29T12:43:54.155Z,95.17
2019-04-29T12:44:52.087Z,95.17
2019-04-29T12:45:53.684Z,95.57
2019-04-29T12:46:51.136Z,95.21
2019-04-29T12:47:51.053Z,95.31
2019-04-29T12:48:51.045Z,94.90
2019-04-29T12:49:51.033Z,95.01
2019-04-29T12:50:57.097Z,95.21
2019-04-29T12:51:52.065Z,94.39
2019-04-29T12:52:50.995Z,95.01